createdAt,value
2022-12-23T00:00:42.071Z,11.82
2022-12-23T00:01:44.046Z,9.20
2022-12-23T00:02:46.096Z,11.40
2022-12-23T00:03:47.843Z,9.63
2022-12-23T00:04:49.349Z,11.90
2022-12-23T00:05:51.425Z,10.07
2022-12-23T00:06:53.170Z,10.73
2022-12-23T00:07:54.578Z,9.13
2022-12-23T00:08:58.385Z,7.38
2022-12-23T00:10:00.496Z,9.75
2022-12-23T00:11:04.464Z,8.80
2022-12-23T00:12:24.847Z,9.57
2022-12-23T00:13:44.697Z,8.85
2022-12-23T00:15:04.477Z,12.20
2022-12-23T00:16:07.832Z,8.55
2022-12-23T00:17:22.209Z,9.35
2022-12-23T00:19:25.919Z,11.85
2022-12-23T00:20:27.400Z,10.27
2022-12-23T00:21:28.862Z,11.45
2022-12-23T00:22:49.111Z,10.75
2022-12-23T00:23:51.560Z,8.70
2022-12-23T00:24:52.994Z,6.80
2022-12-23T00:25:54.538Z,9.02
2022-12-23T00:26:56.290Z,9.05
2022-12-23T00:28:03.455Z,9.35
2022-12-23T00:29:04.907Z,11.52
2022-12-23T00:30:09.357Z,9.68
2022-12-23T00:31:12.729Z,8.15
2022-12-23T00:32:14.652Z,9.80
2022-12-23T00:33:19.134Z,9.10
2022-12-23T00:34:20.567Z,8.70
2022-12-23T00:35:21.988Z,12.02
2022-12-23T00:36:30.536Z,7.13
2022-12-23T00:37:32.112Z,12.90
2022-12-23T00:38:52.351Z,13.52
2022-12-23T00:40:12.225Z,10.52
2022-12-23T00:41:35.457Z,10.30
2022-12-23T00:42:54.939Z,11.05
2022-12-23T00:43:56.631Z,10.85
2022-12-23T00:45:15.559Z,9.18
2022-12-23T00:46:17.461Z,6.25
2022-12-23T00:47:37.570Z,8.32
2022-12-23T00:48:57.446Z,8.00
2022-12-23T00:49:58.919Z,8.25
2022-12-23T00:51:00.354Z,7.78
2022-12-23T00:52:02.994Z,6.95
2022-12-23T00:53:05.807Z,10.73
2022-12-23T00:54:07.542Z,11.25
2022-12-23T00:55:09.147Z,8.32
2022-12-23T00:56:10.591Z,12.25
2022-12-23T00:57:12.376Z,11.07
2022-12-23T00:58:15.838Z,7.32
2022-12-23T00:59:17.285Z,8.65
2022-12-23T01:00:19.352Z,7.53
2022-12-23T01:01:39.383Z,8.55
2022-12-23T01:02:59.854Z,8.98
2022-12-23T01:04:21.158Z,7.18
2022-12-23T01:05:38.052Z,11.10
2022-12-23T01:06:39.460Z,6.13
2022-12-23T01:07:42.721Z,7.45
2022-12-23T01:08:44.221Z,8.43
2022-12-23T01:09:45.844Z,6.75
2022-12-23T01:10:47.258Z,11.20
2022-12-23T01:11:48.718Z,8.10
2022-12-23T01:12:50.504Z,7.63
2022-12-23T01:13:51.927Z,8.18
2022-12-23T01:14:56.217Z,11.82
2022-12-23T01:16:05.583Z,8.52
2022-12-23T01:17:11.240Z,7.03
2022-12-23T01:18:12.935Z,9.68
2022-12-23T01:19:17.529Z,10.88
2022-12-23T01:20:19.212Z,11.15
2022-12-23T01:21:21.119Z,8.27
2022-12-23T01:22:22.707Z,7.32
2022-12-23T01:23:24.521Z,11.25
2022-12-23T01:24:31.396Z,10.60
2022-12-23T01:25:33.660Z,6.68
2022-12-23T01:26:35.520Z,9.52
2022-12-23T01:27:37.665Z,8.88
2022-12-23T01:28:39.088Z,7.25
2022-12-23T01:29:45.646Z,8.88
2022-12-23T01:30:47.053Z,9.18
2022-12-23T01:31:48.555Z,8.10
2022-12-23T01:32:50.707Z,11.38
2022-12-23T01:33:53.005Z,9.55
2022-12-23T01:34:54.438Z,8.13
2022-12-23T01:36:00.658Z,10.70
2022-12-23T01:37:02.124Z,8.38
2022-12-23T01:38:03.613Z,9.15
2022-12-23T01:39:05.083Z,11.50
2022-12-23T01:40:07.767Z,9.57
2022-12-23T01:41:40.598Z,6.85
2022-12-23T01:42:45.385Z,8.48
2022-12-23T01:43:49.616Z,10.05
2022-12-23T01:45:16.235Z,7.30
2022-12-23T01:46:17.969Z,8.27
2022-12-23T01:47:44.655Z,6.45
2022-12-23T01:48:51.200Z,8.43
2022-12-23T01:50:08.416Z,9.80
2022-12-23T01:51:16.981Z,9.95
2022-12-23T01:52:18.883Z,12.32
2022-12-23T01:53:31.699Z,9.45
2022-12-23T01:54:34.280Z,7.68
2022-12-23T01:55:43.166Z,11.73
2022-12-23T01:56:44.626Z,9.50
2022-12-23T01:57:47.888Z,9.43
2022-12-23T01:59:34.994Z,9.95
2022-12-23T02:00:56.387Z,7.88
2022-12-23T02:03:39.675Z,7.90
2022-12-23T02:04:42.296Z,7.43
2022-12-23T02:05:46.365Z,9.13
2022-12-23T02:07:09.391Z,7.68
2022-12-23T02:08:31.665Z,8.63
2022-12-23T02:09:36.006Z,8.32
2022-12-23T02:11:22.279Z,9.20
2022-12-23T02:12:56.203Z,7.22
2022-12-23T02:14:41.351Z,8.93
2022-12-23T02:16:14.172Z,8.68
2022-12-23T02:17:34.418Z,8.60
2022-12-23T02:18:48.835Z,7.65
2022-12-23T02:20:13.868Z,9.85
2022-12-23T02:21:38.997Z,8.25
2022-12-23T02:22:47.124Z,6.28
2022-12-23T02:23:51.660Z,7.63
2022-12-23T02:25:12.016Z,6.75
2022-12-23T02:26:37.827Z,9.68
2022-12-23T02:27:59.677Z,8.48
2022-12-23T02:29:17.011Z,8.32
2022-12-23T02:30:24.507Z,12.85
2022-12-23T02:31:52.154Z,6.03
2022-12-23T02:33:02.620Z,6.60
2022-12-23T02:34:19.036Z,5.95
2022-12-23T02:35:42.158Z,9.38
2022-12-23T02:37:16.783Z,9.07
2022-12-23T02:38:33.773Z,7.88
2022-12-23T02:39:56.819Z,8.88
2022-12-23T02:41:25.636Z,10.63
2022-12-23T02:42:37.526Z,9.63
2022-12-23T02:44:02.369Z,7.60
2022-12-23T02:45:26.551Z,7.53
2022-12-23T02:46:37.005Z,7.25
2022-12-23T02:47:44.899Z,6.57
2022-12-23T02:48:57.152Z,8.23
2022-12-23T02:50:06.237Z,9.00
2022-12-23T02:52:18.394Z,6.72
2022-12-23T02:53:27.927Z,8.63
2022-12-23T02:54:32.721Z,11.38
2022-12-23T02:55:36.923Z,8.98
2022-12-23T02:56:43.276Z,10.23
2022-12-23T02:57:49.278Z,9.15
2022-12-23T02:58:58.022Z,9.23
2022-12-23T03:00:01.392Z,10.55
2022-12-23T03:01:05.153Z,11.65
2022-12-23T03:02:06.824Z,7.28
2022-12-23T03:03:08.591Z,8.35
2022-12-23T03:04:10.136Z,11.07
2022-12-23T03:05:39.188Z,6.85
2022-12-23T03:06:43.627Z,9.82
2022-12-23T03:07:45.422Z,8.07
2022-12-23T03:08:48.843Z,6.68
2022-12-23T03:10:10.543Z,7.15
2022-12-23T03:11:15.189Z,8.98
2022-12-23T03:12:36.440Z,7.35
2022-12-23T03:14:05.621Z,6.47
2022-12-23T03:15:36.791Z,7.18
2022-12-23T03:16:58.709Z,10.05
2022-12-23T03:18:10.691Z,9.15
2022-12-23T03:19:31.427Z,9.27
2022-12-23T03:20:52.518Z,8.13
2022-12-23T03:22:11.834Z,8.10
2022-12-23T03:23:26.092Z,8.38
2022-12-23T03:25:01.209Z,7.35
2022-12-23T03:26:15.503Z,9.15
2022-12-23T03:27:26.478Z,7.72
2022-12-23T03:28:32.818Z,6.90
2022-12-23T03:29:43.340Z,8.30
2022-12-23T03:30:50.997Z,5.80
2022-12-23T03:31:55.129Z,6.82
2022-12-23T03:33:05.669Z,6.55
2022-12-23T03:34:13.286Z,6.40
2022-12-23T03:35:21.814Z,7.18
2022-12-23T03:36:32.153Z,6.22
2022-12-23T03:37:37.487Z,7.63
2022-12-23T03:38:42.716Z,10.20
2022-12-23T03:39:54.207Z,8.05
2022-12-23T03:41:05.458Z,6.35
2022-12-23T03:42:27.431Z,7.18
2022-12-23T03:43:35.585Z,6.18
2022-12-23T03:44:57.258Z,6.75
2022-12-23T03:46:12.546Z,7.95
2022-12-23T03:47:18.768Z,7.25
2022-12-23T03:48:46.782Z,6.82
2022-12-23T03:49:55.747Z,6.85
2022-12-23T03:51:03.350Z,8.73
2022-12-23T03:52:20.759Z,6.25
2022-12-23T03:53:45.594Z,6.25
2022-12-23T03:54:53.890Z,5.80
2022-12-23T03:56:09.604Z,5.15
2022-12-23T03:57:13.533Z,6.40
2022-12-23T03:58:38.844Z,5.03
2022-12-23T03:59:45.568Z,6.13
2022-12-23T04:00:59.847Z,7.20
2022-12-23T04:02:04.254Z,8.32
2022-12-23T04:03:10.776Z,6.88
2022-12-23T04:04:24.590Z,5.93
2022-12-23T04:05:31.786Z,6.97
2022-12-23T04:06:45.115Z,6.90
2022-12-23T04:07:48.557Z,8.32
2022-12-23T04:08:50.810Z,5.60
2022-12-23T04:09:53.580Z,5.30
2022-12-23T04:10:55.088Z,6.30
2022-12-23T04:11:57.951Z,5.18
2022-12-23T04:12:59.582Z,6.07
2022-12-23T04:14:01.622Z,5.40
2022-12-23T04:15:08.993Z,6.07
2022-12-23T04:16:14.785Z,5.20
2022-12-23T04:17:18.068Z,8.75
2022-12-23T04:18:19.847Z,6.28
2022-12-23T04:19:22.043Z,6.85
2022-12-23T04:20:24.265Z,6.80
2022-12-23T04:21:27.708Z,5.40
2022-12-23T04:22:29.497Z,5.18
2022-12-23T04:23:31.586Z,6.82
2022-12-23T04:24:33.332Z,5.35
2022-12-23T04:25:34.773Z,7.10
2022-12-23T04:26:36.276Z,6.15
2022-12-23T04:27:41.214Z,6.43
2022-12-23T04:28:43.012Z,7.13
2022-12-23T04:29:44.908Z,8.18
2022-12-23T04:30:46.341Z,8.35
2022-12-23T04:31:47.914Z,7.15
2022-12-23T04:32:56.861Z,5.65
2022-12-23T04:33:59.082Z,5.72
2022-12-23T04:35:00.639Z,5.47
2022-12-23T04:36:02.079Z,5.22
2022-12-23T04:37:03.739Z,7.25
2022-12-23T04:38:05.416Z,7.00
2022-12-23T04:39:07.168Z,6.03
2022-12-23T04:40:09.001Z,6.82
2022-12-23T04:41:10.442Z,7.55
2022-12-23T04:42:11.939Z,6.30
2022-12-23T04:43:13.536Z,6.65
2022-12-23T04:44:15.745Z,5.95
2022-12-23T04:45:19.729Z,5.30
2022-12-23T04:46:23.974Z,6.07
2022-12-23T04:47:26.093Z,5.22
2022-12-23T04:48:27.862Z,6.35
2022-12-23T04:49:30.530Z,7.30
2022-12-23T04:50:31.965Z,6.15
2022-12-23T04:51:33.581Z,6.50
2022-12-23T04:52:35.297Z,6.38
2022-12-23T04:53:37.823Z,5.82
2022-12-23T04:54:45.500Z,5.63
2022-12-23T04:55:53.476Z,5.28
2022-12-23T04:56:55.060Z,7.18
2022-12-23T04:57:56.493Z,7.00
2022-12-23T04:58:58.237Z,6.43
2022-12-23T04:59:59.763Z,7.45
2022-12-23T05:01:06.753Z,5.68
2022-12-23T05:02:11.377Z,6.78
2022-12-23T05:03:13.344Z,6.35
2022-12-23T05:04:14.947Z,7.35
2022-12-23T05:05:16.421Z,4.85
2022-12-23T05:06:17.862Z,6.05
2022-12-23T05:07:19.715Z,6.93
2022-12-23T05:08:21.508Z,5.25
2022-12-23T05:09:23.159Z,6.20
2022-12-23T05:10:24.624Z,5.82
2022-12-23T05:11:26.123Z,6.18
2022-12-23T05:12:31.693Z,5.25
2022-12-23T05:13:33.371Z,6.10
2022-12-23T05:14:34.745Z,6.40
2022-12-23T05:15:36.264Z,5.53
2022-12-23T05:16:38.075Z,5.70
2022-12-23T05:17:39.621Z,6.18
2022-12-23T05:18:41.038Z,5.95
2022-12-23T05:19:42.424Z,5.05
2022-12-23T05:20:44.885Z,5.05
2022-12-23T05:21:46.837Z,6.05
2022-12-23T05:22:49.069Z,4.72
2022-12-23T05:23:50.962Z,5.22
2022-12-23T05:24:52.453Z,6.85
2022-12-23T05:25:54.513Z,5.22
2022-12-23T05:27:00.209Z,6.38
2022-12-23T05:28:03.141Z,5.60
2022-12-23T05:29:07.743Z,6.10
2022-12-23T05:30:09.843Z,5.88
2022-12-23T05:31:12.729Z,5.35
2022-12-23T05:32:14.217Z,5.88
2022-12-23T05:33:16.101Z,6.15
2022-12-23T05:34:17.559Z,5.50
2022-12-23T05:35:18.962Z,5.28
2022-12-23T05:36:20.593Z,6.13
2022-12-23T05:37:22.029Z,4.60
2022-12-23T05:38:24.533Z,5.50
2022-12-23T05:39:25.953Z,6.30
2022-12-23T05:40:29.837Z,5.47
2022-12-23T05:41:34.044Z,4.63
2022-12-23T05:42:35.466Z,7.65
2022-12-23T05:43:37.107Z,4.50
2022-12-23T05:44:38.530Z,4.63
2022-12-23T05:45:40.025Z,5.93
2022-12-23T05:46:41.516Z,6.38
2022-12-23T05:47:43.318Z,5.20
2022-12-23T05:48:44.746Z,4.50
2022-12-23T05:49:46.149Z,5.35
2022-12-23T05:50:51.714Z,4.88
2022-12-23T05:51:53.138Z,4.30
2022-12-23T05:52:57.828Z,5.15
2022-12-23T05:53:59.319Z,6.50
2022-12-23T05:55:00.778Z,4.75
2022-12-23T05:56:06.607Z,5.28
2022-12-23T05:57:08.047Z,5.40
2022-12-23T05:58:10.035Z,5.50
2022-12-23T05:59:11.468Z,6.07
2022-12-23T06:00:13.999Z,5.20
2022-12-23T06:01:15.445Z,5.90
2022-12-23T06:02:17.043Z,4.75
2022-12-23T06:03:19.113Z,6.00
2022-12-23T06:04:20.816Z,4.57
2022-12-23T06:05:22.449Z,5.10
2022-12-23T06:06:23.870Z,5.60
2022-12-23T06:07:25.622Z,4.50
2022-12-23T06:08:27.071Z,4.10
2022-12-23T06:09:28.459Z,4.70
2022-12-23T06:10:29.888Z,5.47
2022-12-23T06:11:31.384Z,4.68
2022-12-23T06:12:33.144Z,3.97
2022-12-23T06:13:34.577Z,4.38
2022-12-23T06:14:36.024Z,4.45
2022-12-23T06:15:37.492Z,4.45
2022-12-23T06:16:39.002Z,4.88
2022-12-23T06:17:40.482Z,5.22
2022-12-23T06:18:42.506Z,4.70
2022-12-23T06:19:43.932Z,4.78
2022-12-23T06:20:47.006Z,4.38
2022-12-23T06:21:48.539Z,5.78
2022-12-23T06:22:50.719Z,4.40
2022-12-23T06:23:52.457Z,5.20
2022-12-23T06:24:53.977Z,4.13
2022-12-23T06:26:00.128Z,3.85
2022-12-23T06:27:01.690Z,4.10
2022-12-23T06:28:03.566Z,4.05
2022-12-23T06:29:14.547Z,3.38
2022-12-23T06:30:16.080Z,3.92
2022-12-23T06:31:17.609Z,3.80
2022-12-23T06:32:19.438Z,3.03
2022-12-23T06:33:21.329Z,3.30
2022-12-23T06:34:22.830Z,2.92
2022-12-23T06:35:24.277Z,3.30
2022-12-23T06:36:25.724Z,3.20
2022-12-23T06:37:27.450Z,3.20
2022-12-23T06:38:28.901Z,3.85
2022-12-23T06:39:30.427Z,3.20
2022-12-23T06:40:31.910Z,3.22
2022-12-23T06:41:33.346Z,2.78
2022-12-23T06:42:35.159Z,3.40
2022-12-23T06:43:36.596Z,3.47
2022-12-23T06:44:38.062Z,2.83
2022-12-23T06:45:39.989Z,3.20
2022-12-23T06:46:41.485Z,3.08
2022-12-23T06:47:42.978Z,3.20
2022-12-23T06:48:44.415Z,3.65
2022-12-23T06:49:46.187Z,3.42
2022-12-23T06:50:47.635Z,4.07
2022-12-23T06:51:49.446Z,2.85
2022-12-23T06:52:50.903Z,3.42
2022-12-23T06:53:52.328Z,2.75
2022-12-23T06:54:53.775Z,3.00
2022-12-23T06:56:02.595Z,2.70
2022-12-23T06:57:04.430Z,3.15
2022-12-23T06:58:06.124Z,3.55
2022-12-23T06:59:07.631Z,3.22
2022-12-23T07:00:09.635Z,3.20
2022-12-23T07:01:11.269Z,2.90
2022-12-23T07:02:13.345Z,3.55
2022-12-23T07:03:15.224Z,2.75
2022-12-23T07:04:16.917Z,3.58
2022-12-23T07:05:18.429Z,2.85
2022-12-23T07:06:19.916Z,3.40
2022-12-23T07:07:21.817Z,3.95
2022-12-23T07:08:23.319Z,3.35
2022-12-23T07:09:24.817Z,3.55
2022-12-23T07:10:26.236Z,3.17
2022-12-23T07:11:28.087Z,4.72
2022-12-23T07:12:29.568Z,3.80
2022-12-23T07:13:32.184Z,2.55
2022-12-23T07:14:33.657Z,2.90
2022-12-23T07:15:36.470Z,3.17
2022-12-23T07:16:38.303Z,2.95
2022-12-23T07:17:39.795Z,3.42
2022-12-23T07:18:41.299Z,3.33
2022-12-23T07:19:42.829Z,3.42
2022-12-23T07:20:44.271Z,2.92
2022-12-23T07:21:46.087Z,3.53
2022-12-23T07:22:47.551Z,4.13
2022-12-23T07:23:49.003Z,2.90
2022-12-23T07:24:50.749Z,3.15
2022-12-23T07:25:52.217Z,3.63
2022-12-23T07:26:56.132Z,3.10
2022-12-23T07:27:57.546Z,3.30
2022-12-23T07:28:59.001Z,3.50
2022-12-23T07:30:00.435Z,4.38
2022-12-23T07:31:04.897Z,3.17
2022-12-23T07:32:06.869Z,3.30
2022-12-23T07:33:08.430Z,3.20
2022-12-23T07:34:09.934Z,2.90
2022-12-23T07:35:11.402Z,3.40
2022-12-23T07:36:13.479Z,3.75
2022-12-23T07:37:14.986Z,3.03
2022-12-23T07:38:16.424Z,3.10
2022-12-23T07:39:17.851Z,3.03
2022-12-23T07:40:19.301Z,3.15
2022-12-23T07:41:21.233Z,3.28
2022-12-23T07:42:43.977Z,3.00
2022-12-23T07:43:44.131Z,3.47
2022-12-23T07:44:45.674Z,3.22
2022-12-23T07:45:47.225Z,3.80
2022-12-23T07:46:49.022Z,3.72
2022-12-23T07:47:54.812Z,3.10
2022-12-23T07:48:56.241Z,4.72
2022-12-23T07:49:57.733Z,3.55
2022-12-23T07:51:03.258Z,3.40
2022-12-23T07:52:05.060Z,3.20
2022-12-23T07:53:06.518Z,3.80
2022-12-23T07:54:07.936Z,3.15
2022-12-23T07:55:09.607Z,3.63
2022-12-23T07:56:11.424Z,3.20
2022-12-23T07:57:12.847Z,2.90
2022-12-23T07:58:14.272Z,3.45
2022-12-23T07:59:15.861Z,4.40
2022-12-23T08:00:18.214Z,2.80
2022-12-23T08:01:21.249Z,3.92
2022-12-23T08:02:25.108Z,3.10
2022-12-23T08:03:27.037Z,3.05
2022-12-23T08:04:28.572Z,2.92
2022-12-23T08:05:30.111Z,3.45
2022-12-23T08:06:35.535Z,3.10
2022-12-23T08:07:37.127Z,3.13
2022-12-23T08:08:39.504Z,3.40
2022-12-23T08:09:40.971Z,2.88
2022-12-23T08:10:48.118Z,2.85
2022-12-23T08:11:50.231Z,2.78
2022-12-23T08:12:51.673Z,3.15
2022-12-23T08:13:53.109Z,4.03
2022-12-23T08:14:54.548Z,4.05
2022-12-23T08:15:58.012Z,3.28
2022-12-23T08:16:59.513Z,3.70
2022-12-23T08:18:01.354Z,3.80
2022-12-23T08:19:02.782Z,2.88
2022-12-23T08:20:04.446Z,3.30
2022-12-23T08:21:18.308Z,4.15
2022-12-23T08:22:19.760Z,3.28
2022-12-23T08:23:24.882Z,3.42
2022-12-23T08:24:26.592Z,4.22
2022-12-23T08:25:28.069Z,3.80
2022-12-23T08:26:29.822Z,3.63
2022-12-23T08:27:31.266Z,3.88
2022-12-23T08:28:33.827Z,4.18
2022-12-23T08:29:36.641Z,3.22
2022-12-23T08:31:40.155Z,3.28
2022-12-23T08:32:41.570Z,2.80
2022-12-23T08:33:45.627Z,2.85
2022-12-23T08:34:47.066Z,2.70
2022-12-23T08:35:48.518Z,3.35
2022-12-23T08:36:50.055Z,2.60
2022-12-23T08:38:00.354Z,2.80
2022-12-23T08:39:06.178Z,2.85
2022-12-23T08:40:08.354Z,2.80
2022-12-23T08:41:12.229Z,3.92
2022-12-23T08:42:13.880Z,3.65
2022-12-23T08:43:15.388Z,2.75
2022-12-23T08:44:17.314Z,2.38
2022-12-23T08:45:18.782Z,3.28
2022-12-23T08:46:21.379Z,3.20
2022-12-23T08:47:22.843Z,2.40
2022-12-23T08:48:24.241Z,2.70
2022-12-23T08:49:25.663Z,2.70
2022-12-23T08:50:27.056Z,2.67
2022-12-23T08:51:29.115Z,2.33
2022-12-23T08:52:30.531Z,2.80
2022-12-23T08:53:32.669Z,2.53
2022-12-23T08:54:34.230Z,2.83
2022-12-23T08:55:43.887Z,2.60
2022-12-23T08:56:45.694Z,2.85
2022-12-23T08:57:47.156Z,2.72
2022-12-23T08:58:51.073Z,2.38
2022-12-23T08:59:52.602Z,3.20
2022-12-23T09:00:54.351Z,2.90
2022-12-23T09:01:56.771Z,3.15
2022-12-23T09:02:58.520Z,2.60
2022-12-23T09:04:07.033Z,2.50
2022-12-23T09:05:08.755Z,2.53
2022-12-23T09:06:28.534Z,3.35
2022-12-23T09:07:30.363Z,2.30
2022-12-23T09:08:31.901Z,3.30
2022-12-23T09:09:33.388Z,2.83
2022-12-23T09:10:41.215Z,2.60
2022-12-23T09:11:43.268Z,2.88
2022-12-23T09:12:44.839Z,4.35
2022-12-23T09:13:47.173Z,4.80
2022-12-23T09:14:48.646Z,3.78
2022-12-23T09:15:50.466Z,4.57
2022-12-23T09:16:52.522Z,4.53
2022-12-23T09:17:54.048Z,4.40
2022-12-23T09:18:56.456Z,5.07
2022-12-23T09:19:57.909Z,2.92
2022-12-23T09:21:01.977Z,3.88
2022-12-23T09:22:03.384Z,3.70
2022-12-23T09:23:05.647Z,2.47
2022-12-23T09:24:07.106Z,2.90
2022-12-23T09:25:08.868Z,2.70
2022-12-23T09:26:11.763Z,2.40
2022-12-23T09:28:14.503Z,5.15
2022-12-23T09:29:15.937Z,2.83
2022-12-23T09:30:17.447Z,3.67
2022-12-23T09:31:20.268Z,4.40
2022-12-23T09:34:24.678Z,4.50
2022-12-23T09:35:26.152Z,3.10
2022-12-23T09:36:27.730Z,3.65
2022-12-23T09:37:29.304Z,4.53
2022-12-23T09:38:31.262Z,2.58
2022-12-23T09:39:32.740Z,2.95
2022-12-23T09:40:37.447Z,3.78
2022-12-23T09:41:53.119Z,3.20
2022-12-23T09:43:32.354Z,2.88
2022-12-23T09:45:08.031Z,3.30
2022-12-23T09:46:22.607Z,5.13
2022-12-23T09:47:27.332Z,4.25
2022-12-23T09:48:34.326Z,3.58
2022-12-23T09:49:46.170Z,2.67
2022-12-23T09:50:48.814Z,3.78
2022-12-23T09:51:54.099Z,2.47
2022-12-23T09:53:03.956Z,4.55
2022-12-23T09:54:17.080Z,3.55
2022-12-23T09:55:20.415Z,6.93
2022-12-23T09:56:34.567Z,6.68
2022-12-23T09:57:46.240Z,12.63
2022-12-23T09:59:15.093Z,15.07
2022-12-23T10:00:21.513Z,10.93
2022-12-23T10:01:33.047Z,9.32
2022-12-23T10:02:51.434Z,6.35
2022-12-23T10:04:21.376Z,7.75
2022-12-23T10:05:44.725Z,5.57
2022-12-23T10:07:02.502Z,3.28
2022-12-23T10:08:14.336Z,5.07
2022-12-23T10:09:17.469Z,3.45
2022-12-23T10:10:37.527Z,3.95
2022-12-23T10:11:43.844Z,3.42
2022-12-23T10:12:49.554Z,3.10
2022-12-23T10:14:02.870Z,4.97
2022-12-23T10:15:16.774Z,3.90
2022-12-23T10:16:22.889Z,4.28
2022-12-23T10:17:35.385Z,3.85
2022-12-23T10:19:07.067Z,3.90
2022-12-23T10:20:18.701Z,3.67
2022-12-23T10:21:29.262Z,3.28
2022-12-23T10:22:45.244Z,5.75
2022-12-23T10:23:51.256Z,3.35
2022-12-23T10:24:55.632Z,3.30
2022-12-23T10:25:57.094Z,3.67
2022-12-23T10:27:06.603Z,4.07
2022-12-23T10:28:10.734Z,3.70
2022-12-23T10:29:19.438Z,3.50
2022-12-23T10:32:03.794Z,4.00
2022-12-23T10:33:20.076Z,3.88
2022-12-23T10:34:36.594Z,5.32
2022-12-23T10:36:02.128Z,8.15
2022-12-23T10:37:42.384Z,14.90
2022-12-23T10:39:05.668Z,11.93
2022-12-23T10:40:17.406Z,10.23
2022-12-23T10:41:45.680Z,8.88
2022-12-23T10:43:25.081Z,7.78
2022-12-23T10:44:26.447Z,5.95
2022-12-23T10:46:21.401Z,5.35
2022-12-23T10:48:00.668Z,4.30
2022-12-23T10:49:18.376Z,4.18
2022-12-23T10:50:38.691Z,4.80
2022-12-23T10:51:46.362Z,4.82
2022-12-23T10:52:49.914Z,3.65
2022-12-23T10:53:56.556Z,4.65
2022-12-23T10:54:58.067Z,5.00
2022-12-23T10:56:00.223Z,4.78
2022-12-23T10:57:03.880Z,4.22
2022-12-23T10:58:12.832Z,4.65
2022-12-23T10:59:15.870Z,4.38
2022-12-23T11:00:21.554Z,3.90
2022-12-23T11:01:27.028Z,4.18
2022-12-23T11:02:44.004Z,4.60
2022-12-23T11:04:03.166Z,4.13
2022-12-23T11:05:13.582Z,4.40
2022-12-23T11:06:15.770Z,5.47
2022-12-23T11:07:44.004Z,4.80
2022-12-23T11:08:46.816Z,5.32
2022-12-23T11:09:53.188Z,4.63
2022-12-23T11:10:55.167Z,3.90
2022-12-23T11:12:04.245Z,5.15
2022-12-23T11:14:35.616Z,5.10
2022-12-23T11:15:41.034Z,5.60
2022-12-23T11:16:47.297Z,5.47
2022-12-23T11:18:00.526Z,6.40
2022-12-23T11:19:13.805Z,5.53
2022-12-23T11:20:20.115Z,5.75
2022-12-23T11:21:21.652Z,5.18
2022-12-23T11:22:25.308Z,5.03
2022-12-23T11:23:29.805Z,5.68
2022-12-23T11:24:35.468Z,13.25
2022-12-23T11:25:42.404Z,13.90
2022-12-23T11:26:46.369Z,18.60
2022-12-23T11:27:47.906Z,16.70
2022-12-23T11:28:56.165Z,14.40
2022-12-23T11:29:57.648Z,7.78
2022-12-23T11:31:09.676Z,7.57
2022-12-23T11:32:19.251Z,6.95
2022-12-23T11:33:31.036Z,8.48
2022-12-23T11:34:37.900Z,5.80
2022-12-23T11:35:39.520Z,5.60
2022-12-23T11:36:41.459Z,5.50
2022-12-23T11:37:43.403Z,5.72
2022-12-23T11:39:02.864Z,6.43
2022-12-23T11:40:25.893Z,5.93
2022-12-23T11:41:29.846Z,6.30
2022-12-23T11:42:34.396Z,4.50
2022-12-23T11:43:39.382Z,4.97
2022-12-23T11:44:48.033Z,6.18
2022-12-23T11:46:15.913Z,5.60
2022-12-23T11:47:24.231Z,5.70
2022-12-23T11:48:30.283Z,7.32
2022-12-23T11:49:31.752Z,5.88
2022-12-23T11:50:39.266Z,6.40
2022-12-23T11:51:41.480Z,6.70
2022-12-23T11:52:51.136Z,6.57
2022-12-23T11:53:59.889Z,6.30
2022-12-23T11:55:03.744Z,5.50
2022-12-23T11:56:08.936Z,7.43
2022-12-23T11:57:19.268Z,7.65
2022-12-23T11:58:22.787Z,7.75
2022-12-23T11:59:30.279Z,10.60
2022-12-23T12:00:55.398Z,6.13
2022-12-23T12:02:05.303Z,6.25
2022-12-23T12:03:15.645Z,6.88
2022-12-23T12:04:22.634Z,6.85
2022-12-23T12:05:36.109Z,6.18
2022-12-23T12:06:49.632Z,6.63
2022-12-23T12:07:54.771Z,5.25
2022-12-23T12:08:59.077Z,5.13
2022-12-23T12:10:01.699Z,6.32
2022-12-23T12:11:13.808Z,6.38
2022-12-23T12:12:19.393Z,7.20
2022-12-23T12:13:35.775Z,6.78
2022-12-23T12:14:43.027Z,6.47
2022-12-23T12:16:02.321Z,6.40
2022-12-23T12:17:22.467Z,6.45
2022-12-23T12:18:26.712Z,6.40
2022-12-23T12:19:36.656Z,6.13
2022-12-23T12:20:45.217Z,6.88
2022-12-23T12:21:50.249Z,7.15
2022-12-23T12:22:57.760Z,6.85
2022-12-23T12:24:18.691Z,5.47
2022-12-23T12:25:26.093Z,6.78
2022-12-23T12:26:34.721Z,6.38
2022-12-23T12:27:39.441Z,6.78
2022-12-23T12:28:44.631Z,6.30
2022-12-23T12:29:55.734Z,7.45
2022-12-23T12:31:03.204Z,5.30
2022-12-23T12:32:14.427Z,6.32
2022-12-23T12:33:19.510Z,7.53
2022-12-23T12:34:39.235Z,9.32
2022-12-23T12:35:46.913Z,12.05
2022-12-23T12:37:01.868Z,8.02
2022-12-23T12:38:24.487Z,9.05
2022-12-23T12:39:43.063Z,6.63
2022-12-23T12:40:49.674Z,5.68
2022-12-23T12:42:01.638Z,6.63
2022-12-23T12:43:18.478Z,6.10
2022-12-23T12:44:28.978Z,5.85
2022-12-23T12:45:59.924Z,6.63
2022-12-23T12:47:44.555Z,9.38
2022-12-23T12:49:02.645Z,5.93
2022-12-23T12:50:21.877Z,7.63
2022-12-23T12:51:37.960Z,6.65
2022-12-23T12:52:42.963Z,7.22
2022-12-23T12:54:22.732Z,7.03
2022-12-23T12:56:41.904Z,6.88
2022-12-23T12:59:50.432Z,6.93
2022-12-23T13:01:26.838Z,8.00
2022-12-23T13:03:05.894Z,7.20
2022-12-23T13:04:45.661Z,7.13
2022-12-23T13:06:05.150Z,7.70
2022-12-23T13:07:33.967Z,6.38
2022-12-23T13:09:03.685Z,5.88
2022-12-23T13:10:22.031Z,6.45
2022-12-23T13:11:50.896Z,6.25
2022-12-23T13:13:10.493Z,6.95
2022-12-23T13:14:33.911Z,7.53
2022-12-23T13:16:05.214Z,7.88
2022-12-23T13:17:24.372Z,8.45
2022-12-23T13:18:42.342Z,4.60
2022-12-23T13:20:02.104Z,5.93
2022-12-23T13:21:23.592Z,5.80
2022-12-23T13:24:03.784Z,4.63
2022-12-23T13:25:17.707Z,4.18
2022-12-23T13:26:31.023Z,4.38
2022-12-23T13:27:48.344Z,4.13
2022-12-23T13:29:15.391Z,4.00
2022-12-23T13:30:20.030Z,4.50
2022-12-23T13:31:36.505Z,3.97
2022-12-23T13:33:02.198Z,4.32
2022-12-23T13:34:14.355Z,5.63
2022-12-23T13:35:37.337Z,4.70
2022-12-23T13:36:52.869Z,5.65
2022-12-23T13:38:06.280Z,4.03
2022-12-23T13:39:27.089Z,4.75
2022-12-23T13:40:56.467Z,5.07
2022-12-23T13:42:05.690Z,5.57
2022-12-23T13:43:20.628Z,4.07
2022-12-23T13:44:23.187Z,4.03
2022-12-23T13:45:32.805Z,4.60
2022-12-23T13:46:43.263Z,4.53
2022-12-23T13:48:05.450Z,5.68
2022-12-23T13:49:14.197Z,5.45
2022-12-23T13:50:42.112Z,5.22
2022-12-23T13:51:53.500Z,4.38
2022-12-23T13:53:07.116Z,4.45
2022-12-23T13:54:21.003Z,5.22
2022-12-23T13:55:51.509Z,4.70
2022-12-23T13:57:11.655Z,4.97
2022-12-23T13:58:22.365Z,5.10
2022-12-23T13:59:39.239Z,6.10
2022-12-23T14:00:41.083Z,6.78
2022-12-23T14:01:46.831Z,5.30
2022-12-23T14:03:01.957Z,6.70
2022-12-23T14:04:32.013Z,6.10
2022-12-23T14:05:45.291Z,5.97
2022-12-23T14:06:48.219Z,6.32
2022-12-23T14:07:50.615Z,5.55
2022-12-23T14:08:54.083Z,6.50
2022-12-23T14:09:58.507Z,6.45
2022-12-23T14:11:14.753Z,7.78
2022-12-23T14:12:42.831Z,6.95
2022-12-23T14:14:06.636Z,8.70
2022-12-23T14:15:23.444Z,7.55
2022-12-23T14:16:36.084Z,7.00
2022-12-23T14:17:52.340Z,7.85
2022-12-23T14:19:30.938Z,7.45
2022-12-23T14:20:41.232Z,6.72
2022-12-23T14:22:03.937Z,8.80
2022-12-23T14:23:27.026Z,7.43
2022-12-23T14:24:47.035Z,6.50
2022-12-23T14:26:13.743Z,7.47
2022-12-23T14:27:43.038Z,5.50
2022-12-23T14:29:15.376Z,6.95
2022-12-23T14:30:36.355Z,8.45
2022-12-23T14:31:44.095Z,6.43
2022-12-23T14:32:48.062Z,6.53
2022-12-23T14:33:49.626Z,5.93
2022-12-23T14:35:18.680Z,6.50
2022-12-23T14:36:25.675Z,6.63
2022-12-23T14:37:27.357Z,7.28
2022-12-23T14:38:31.516Z,7.40
2022-12-23T14:39:34.231Z,6.35
2022-12-23T14:40:38.597Z,7.80
2022-12-23T14:41:50.694Z,7.95
2022-12-23T14:43:30.429Z,6.32
2022-12-23T14:46:44.350Z,26.77
2022-12-23T14:47:46.515Z,31.75
2022-12-23T14:48:48.271Z,13.73
2022-12-23T14:49:49.715Z,7.03
2022-12-23T14:51:00.074Z,7.55
2022-12-23T14:52:39.331Z,8.18
2022-12-23T14:53:52.572Z,6.25
2022-12-23T14:55:21.095Z,6.57
2022-12-23T14:56:16.757Z,7.63
2022-12-23T14:57:27.814Z,8.15
2022-12-23T14:58:36.453Z,7.15
2022-12-23T15:00:02.573Z,6.68
2022-12-23T15:01:16.248Z,6.57
2022-12-23T15:02:29.534Z,6.18
2022-12-23T15:03:40.146Z,5.72
2022-12-23T15:04:54.984Z,6.72
2022-12-23T15:05:58.678Z,7.80
2022-12-23T15:07:06.039Z,7.30
2022-12-23T15:08:27.719Z,6.55
2022-12-23T15:09:32.713Z,6.95
2022-12-23T15:10:37.374Z,6.63
2022-12-23T15:11:40.515Z,6.30
2022-12-23T15:12:47.292Z,6.47
2022-12-23T15:13:51.915Z,6.88
2022-12-23T15:14:57.504Z,5.80
2022-12-23T15:16:01.678Z,5.93
2022-12-23T15:17:28.467Z,6.07
2022-12-23T15:18:29.943Z,6.75
2022-12-23T15:19:32.940Z,7.70
2022-12-23T15:20:35.236Z,6.95
2022-12-23T15:21:36.732Z,6.70
2022-12-23T15:22:39.489Z,5.75
2022-12-23T15:23:49.489Z,6.50